Time;durP1;ratioP1;P1;durP2;ratioP2;P2;SDS_P1;SDS_P2;PMS_P1;PMS_P2;Temp;Humidity;BMP_temperature;BMP_pressure;BME280_temperature;BME280_humidity;BME280_pressure;Samples;Min_cycle;Max_cycle;Signal;HPM_P1;HPM_P2
2023/04/05 00:01:00;;;;;;;2.40;1.05;;;19.80;53.20;;;;;;5014437;28;20217;-53
2023/04/05 00:03:31;;;;;;;1.95;0.90;;;19.80;53.20;;;;;;5015081;28;20204;-53
2023/04/05 00:06:04;;;;;;;1.92;1.00;;;19.80;53.20;;;;;;5005333;28;20213;-52
2023/04/05 00:08:34;;;;;;;0.77;0.63;;;19.90;53.20;;;;;;5012543;28;20239;-54
2023/04/05 00:11:07;;;;;;;3.22;1.02;;;19.90;53.50;;;;;;5013902;28;20213;-53
2023/04/05 00:13:38;;;;;;;0.93;0.80;;;19.90;53.40;;;;;;5015113;28;20228;-50
2023/04/05 00:16:09;;;;;;;1.25;0.88;;;20.00;53.50;;;;;;4997319;28;20205;-51
2023/04/05 00:18:44;;;;;;;1.75;0.90;;;20.00;53.50;;;;;;4995053;28;20204;-49
2023/04/05 00:21:15;;;;;;;1.17;0.80;;;20.10;53.50;;;;;;5012405;28;20189;-49
2023/04/05 00:23:46;;;;;;;1.38;0.70;;;20.10;53.50;;;;;;5014111;28;20197;-51
2023/04/05 00:26:18;;;;;;;1.40;0.70;;;20.10;53.50;;;;;;5004582;28;20205;-57
2023/04/05 00:28:50;;;;;;;1.75;0.95;;;20.20;53.50;;;;;;5009253;28;20905;-51
2023/04/05 00:31:20;;;;;;;2.20;0.73;;;20.20;53.50;;;;;;5014061;28;20212;-51
2023/04/05 00:33:51;;;;;;;1.58;0.90;;;20.30;54.10;;;;;;5013590;28;20240;-52
2023/04/05 00:36:23;;;;;;;1.60;0.80;;;20.30;53.60;;;;;;5000852;28;20201;-52
2023/04/05 00:38:54;;;;;;;0.93;0.70;;;20.40;53.60;;;;;;5011871;28;20577;-51
2023/04/05 00:41:26;;;;;;;1.27;0.65;;;20.40;53.50;;;;;;5013648;28;20197;-51
2023/04/05 00:43:58;;;;;;;2.40;0.80;;;20.50;53.50;;;;;;5012339;28;20240;-50
2023/04/05 00:46:30;;;;;;;0.80;0.70;;;20.50;53.50;;;;;;5013118;28;20201;-52
2023/04/05 00:49:00;;;;;;;1.45;0.90;;;20.50;53.50;;;;;;5012667;28;20192;-51
2023/04/05 00:51:34;;;;;;;2.45;0.68;;;20.60;53.50;;;;;;4993006;28;20205;-55
2023/04/05 00:54:05;;;;;;;0.93;0.82;;;20.60;54.20;;;;;;4993223;28;20267;-56
2023/04/05 00:56:38;;;;;;;1.00;0.60;;;20.70;53.50;;;;;;5007978;28;20204;-54
2023/04/05 00:59:09;;;;;;;1.48;0.60;;;20.70;53.50;;;;;;5012722;28;20224;-54
2023/04/05 01:01:42;;;;;;;2.60;0.80;;;20.80;53.60;;;;;;4993239;28;20686;-54
2023/04/05 01:04:20;;;;;;;1.90;0.70;;;20.80;53.50;;;;;;4996332;28;20685;-54
2023/04/05 01:07:01;;;;;;;0.80;0.60;;;20.80;53.50;;;;;;5002992;28;20204;-56
2023/04/05 01:09:39;;;;;;;1.35;0.60;;;20.90;53.60;;;;;;5013140;28;20223;-52
2023/04/05 01:12:14;;;;;;;0.88;0.60;;;20.90;53.60;;;;;;5012932;28;20228;-57
2023/04/05 01:14:49;;;;;;;0.55;0.55;;;20.90;53.60;;;;;;5005366;28;20225;-54
2023/04/05 01:17:22;;;;;;;0.70;0.50;;;21.00;53.80;;;;;;4993215;28;20285;-55
2023/04/05 01:19:57;;;;;;;0.70;0.60;;;21.00;53.80;;;;;;4993222;28;20647;-50
2023/04/05 01:23:06;;;;;;;1.15;0.60;;;21.10;53.80;;;;;;4993019;28;20672;-52
2023/04/05 01:26:05;;;;;;;1.02;0.50;;;21.10;53.80;;;;;;4993706;28;20212;-55
2023/04/05 01:29:06;;;;;;;0.98;0.60;;;21.20;53.60;;;;;;4992843;28;20197;-52
2023/04/05 01:31:46;;;;;;;0.73;0.50;;;21.20;53.50;;;;;;4992833;28;20586;-55
2023/04/05 01:34:26;;;;;;;0.40;0.40;;;21.30;53.50;;;;;;4993517;28;20247;-52
2023/04/05 01:36:58;;;;;;;2.60;0.50;;;21.30;53.30;;;;;;5011230;28;20294;-56
2023/04/05 01:39:31;;;;;;;0.50;0.40;;;21.40;53.30;;;;;;5012776;28;20217;-54
2023/04/05 01:42:02;;;;;;;1.13;0.50;;;21.40;53.20;;;;;;5012799;28;20575;-53
2023/04/05 01:44:33;;;;;;;0.88;0.50;;;21.50;53.20;;;;;;5012516;28;20193;-58
2023/04/05 01:47:06;;;;;;;0.63;0.40;;;21.50;53.20;;;;;;5012956;28;20201;-55
2023/04/05 01:49:36;;;;;;;0.30;0.30;;;21.50;53.70;;;;;;5012682;28;20216;-51
2023/04/05 01:52:07;;;;;;;1.40;0.60;;;21.60;53.10;;;;;;4995443;28;20194;-55
2023/04/05 01:54:37;;;;;;;0.85;0.40;;;21.60;53.10;;;;;;4993548;28;20229;-51
2023/04/05 01:57:08;;;;;;;0.40;0.40;;;21.60;53.00;;;;;;4992608;28;20197;-54
2023/04/05 01:59:39;;;;;;;0.73;0.40;;;21.70;53.00;;;;;;4993264;28;20225;-53
2023/04/05 02:02:11;;;;;;;0.70;0.32;;;21.70;52.90;;;;;;5012088;28;20211;-52
2023/04/05 02:04:42;;;;;;;0.47;0.32;;;21.80;52.90;;;;;;5010178;28;20267;-52
2023/04/05 02:07:12;;;;;;;0.88;0.50;;;21.80;52.70;;;;;;5008266;28;20240;-54
2023/04/05 02:09:43;;;;;;;0.93;0.50;;;21.90;52.70;;;;;;5011347;28;20231;-51
2023/04/05 02:12:14;;;;;;;0.73;0.38;;;21.90;52.70;;;;;;5011081;28;20201;-56
2023/04/05 02:14:44;;;;;;;0.60;0.40;;;21.90;52.70;;;;;;5005988;28;20222;-54
2023/04/05 02:17:17;;;;;;;0.63;0.38;;;22.00;52.60;;;;;;4992788;28;20197;-57
2023/04/05 02:19:48;;;;;;;1.05;0.35;;;22.00;52.50;;;;;;4992223;28;20232;-55
2023/04/05 02:22:19;;;;;;;0.52;0.35;;;22.10;52.40;;;;;;4992404;28;20259;-55
2023/04/05 02:24:49;;;;;;;0.30;0.30;;;22.10;52.40;;;;;;5000510;28;20563;-56
2023/04/05 02:27:20;;;;;;;0.30;0.30;;;22.10;52.40;;;;;;5011229;28;20205;-56
2023/04/05 02:29:51;;;;;;;1.25;0.40;;;22.20;52.40;;;;;;5010926;28;20235;-56
2023/04/05 02:32:24;;;;;;;1.02;0.50;;;22.20;52.40;;;;;;5011803;28;20266;-52
2023/04/05 02:34:54;;;;;;;0.43;0.30;;;22.20;52.40;;;;;;5011528;28;20298;-55
2023/04/05 02:37:26;;;;;;;0.40;0.30;;;22.30;52.30;;;;;;5011127;28;20196;-51
2023/04/05 02:39:56;;;;;;;0.30;0.20;;;22.30;52.20;;;;;;5010721;28;20213;-55
2023/04/05 02:42:27;;;;;;;0.20;0.20;;;22.30;52.00;;;;;;5010916;28;20212;-55
2023/04/05 02:44:57;;;;;;;1.20;0.55;;;22.40;52.00;;;;;;5009159;28;20538;-51
2023/04/05 02:47:30;;;;;;;0.30;0.30;;;22.40;51.90;;;;;;5008873;28;20664;-55
2023/04/05 02:50:00;;;;;;;0.30;0.30;;;22.50;51.80;;;;;;4993329;28;20228;-55
2023/04/05 02:52:31;;;;;;;1.00;0.30;;;22.50;51.80;;;;;;4990779;28;20193;-56
2023/04/05 02:55:02;;;;;;;0.32;0.30;;;22.50;52.40;;;;;;4991744;28;20295;-55
2023/04/05 02:57:32;;;;;;;1.63;0.40;;;22.60;51.90;;;;;;4991486;28;20212;-53
2023/04/05 03:00:03;;;;;;;0.75;0.25;;;22.60;51.90;;;;;;4991865;28;20217;-52
2023/04/05 03:02:36;;;;;;;0.75;0.40;;;22.60;51.90;;;;;;4991807;28;20537;-53
2023/04/05 03:05:08;;;;;;;0.43;0.40;;;22.60;52.50;;;;;;5000300;28;20200;-52
2023/04/05 03:07:41;;;;;;;0.60;0.40;;;22.70;51.90;;;;;;5011760;28;20302;-54
2023/04/05 03:10:12;;;;;;;0.40;0.38;;;22.70;51.90;;;;;;5010012;28;20216;-53
2023/04/05 03:12:43;;;;;;;0.22;0.22;;;22.70;51.80;;;;;;4996258;28;20661;-56
2023/04/05 03:15:14;;;;;;;0.40;0.20;;;22.70;51.80;;;;;;5001270;28;20221;-55
2023/04/05 03:17:46;;;;;;;0.70;0.30;;;22.70;51.70;;;;;;5010993;28;20247;-53
2023/04/05 03:20:17;;;;;;;0.30;0.30;;;22.70;51.70;;;;;;5006305;28;20571;-50
2023/04/05 03:22:48;;;;;;;0.22;0.22;;;22.80;51.60;;;;;;4991129;28;20204;-56
2023/04/05 03:25:19;;;;;;;0.30;0.30;;;22.80;51.40;;;;;;4990926;28;20593;-52
2023/04/05 03:27:52;;;;;;;0.63;0.30;;;22.80;51.40;;;;;;4991858;28;20559;-54
2023/04/05 03:30:23;;;;;;;0.47;0.30;;;22.80;51.20;;;;;;4993562;28;20217;-52
2023/04/05 03:32:56;;;;;;;0.40;0.30;;;22.90;51.20;;;;;;4991040;28;20202;-54
2023/04/05 03:35:26;;;;;;;0.38;0.30;;;22.90;51.20;;;;;;5000054;28;20630;-55
2023/04/05 03:37:57;;;;;;;0.28;0.20;;;22.90;51.20;;;;;;5006492;28;20206;-52
2023/04/05 03:40:28;;;;;;;0.90;0.40;;;22.90;51.20;;;;;;4999272;28;20228;-56
2023/04/05 03:42:58;;;;;;;0.30;0.30;;;22.90;51.20;;;;;;5010820;28;20201;-55
2023/04/05 03:45:30;;;;;;;0.80;0.30;;;22.90;51.20;;;;;;5009546;28;20209;-50
2023/04/05 03:48:03;;;;;;;1.25;0.40;;;22.90;51.10;;;;;;5010893;28;20224;-56
2023/04/05 03:50:34;;;;;;;1.00;0.22;;;22.90;51.00;;;;;;5010891;28;20644;-55
2023/04/05 03:53:05;;;;;;;0.38;0.20;;;22.90;50.10;;;;;;5010531;28;20601;-52
2023/04/05 03:55:35;;;;;;;1.60;0.32;;;22.90;49.80;;;;;;4991026;28;20468;-52
2023/04/05 03:58:06;;;;;;;0.22;0.22;;;22.90;49.40;;;;;;4991056;28;20198;-53
2023/04/05 04:00:37;;;;;;;0.30;0.30;;;22.90;49.40;;;;;;4993769;28;20236;-51
2023/04/05 04:03:10;;;;;;;0.45;0.20;;;22.90;49.50;;;;;;5009872;28;20205;-54
2023/04/05 04:05:40;;;;;;;0.60;0.30;;;22.80;49.40;;;;;;5010219;28;20239;-54
2023/04/05 04:08:12;;;;;;;0.38;0.28;;;22.90;49.40;;;;;;5010898;28;20204;-53
2023/04/05 04:10:43;;;;;;;0.38;0.30;;;22.90;49.40;;;;;;5009847;28;20709;-57
2023/04/05 04:13:13;;;;;;;1.58;0.40;;;22.90;49.40;;;;;;5010541;28;20201;-51
2023/04/05 04:15:44;;;;;;;0.32;0.30;;;22.90;49.40;;;;;;5006926;28;20236;-54
2023/04/05 04:18:16;;;;;;;0.63;0.30;;;22.90;49.40;;;;;;5014375;28;20200;-50
2023/04/05 04:20:47;;;;;;;0.98;0.30;;;22.90;49.50;;;;;;5013022;28;20620;-52
2023/04/05 04:23:18;;;;;;;0.40;0.40;;;22.90;49.60;;;;;;5013441;28;20204;-58
2023/04/05 04:25:53;;;;;;;0.15;0.15;;;22.90;49.70;;;;;;5014154;28;20275;-54
2023/04/05 04:28:24;;;;;;;0.45;0.30;;;22.90;49.70;;;;;;5014078;28;20204;-54
2023/04/05 04:30:55;;;;;;;1.08;0.30;;;22.90;49.70;;;;;;5004138;28;20224;-50
2023/04/05 04:33:27;;;;;;;0.73;0.30;;;22.90;49.70;;;;;;5010635;28;20200;-50
2023/04/05 04:36:01;;;;;;;0.30;0.30;;;22.90;49.70;;;;;;5010662;28;20307;-53
2023/04/05 04:38:33;;;;;;;0.90;0.30;;;22.90;49.70;;;;;;5012834;28;20280;-52
2023/04/05 04:41:09;;;;;;;0.13;0.13;;;22.90;49.70;;;;;;5006359;28;20319;-51
2023/04/05 04:43:42;;;;;;;1.45;0.40;;;22.90;49.60;;;;;;4994145;28;20205;-50
2023/04/05 04:46:17;;;;;;;0.40;0.20;;;22.90;49.60;;;;;;5011807;28;20193;-51
2023/04/05 04:48:50;;;;;;;0.55;0.30;;;22.90;49.60;;;;;;4999655;28;20791;-50
2023/04/05 04:51:20;;;;;;;1.08;0.30;;;22.90;49.60;;;;;;4993392;28;20264;-54
2023/04/05 04:53:51;;;;;;;0.55;0.30;;;22.90;49.60;;;;;;4993904;28;20689;-52
2023/04/05 04:56:22;;;;;;;0.32;0.30;;;22.90;49.50;;;;;;5010206;28;20701;-52
2023/04/05 04:58:54;;;;;;;0.98;0.30;;;22.90;49.50;;;;;;5013458;28;20235;-51
2023/04/05 05:01:25;;;;;;;0.70;0.40;;;22.90;49.60;;;;;;5012532;28;20657;-54
2023/04/05 05:03:58;;;;;;;0.63;0.30;;;22.90;49.70;;;;;;5011719;28;20205;-51
2023/04/05 05:06:28;;;;;;;0.40;0.40;;;22.90;49.60;;;;;;4998368;28;20206;-51
2023/04/05 05:09:00;;;;;;;0.40;0.30;;;22.90;49.60;;;;;;4993430;28;20197;-53
2023/04/05 05:11:30;;;;;;;0.30;0.30;;;22.90;49.50;;;;;;4993414;28;20198;-50
2023/04/05 05:14:01;;;;;;;0.90;0.30;;;22.90;49.40;;;;;;5000110;28;20200;-53
2023/04/05 05:16:32;;;;;;;1.17;0.20;;;22.90;49.40;;;;;;5002387;28;20200;-53
2023/04/05 05:19:04;;;;;;;0.85;0.30;;;22.90;49.50;;;;;;5013068;28;20203;-52
2023/04/05 05:21:35;;;;;;;0.20;0.20;;;22.90;49.50;;;;;;5007263;28;20197;-55
2023/04/05 05:24:07;;;;;;;1.08;0.50;;;22.90;49.30;;;;;;4997832;28;20211;-53
2023/04/05 05:26:38;;;;;;;0.52;0.40;;;22.90;49.20;;;;;;5012517;28;20656;-53
2023/04/05 05:29:09;;;;;;;0.22;0.22;;;22.90;49.20;;;;;;5011666;28;20255;-53
2023/04/05 05:31:39;;;;;;;0.22;0.20;;;22.90;49.20;;;;;;5007570;28;20334;-54
2023/04/05 05:34:12;;;;;;;1.92;0.40;;;22.90;49.20;;;;;;5011922;28;20197;-52
2023/04/05 05:36:43;;;;;;;0.40;0.22;;;22.90;49.10;;;;;;5011851;28;20197;-54
2023/04/05 05:39:13;;;;;;;2.08;0.35;;;22.90;49.10;;;;;;5011733;28;20213;-54
2023/04/05 05:41:44;;;;;;;0.20;0.20;;;22.90;49.20;;;;;;5002962;28;20201;-51
2023/04/05 05:44:15;;;;;;;0.20;0.20;;;22.90;49.10;;;;;;4991790;28;20248;-56
2023/04/05 05:46:45;;;;;;;0.52;0.30;;;23.00;49.10;;;;;;5002768;28;20193;-52
2023/04/05 05:49:18;;;;;;;1.08;0.32;;;22.90;49.00;;;;;;5011490;28;20563;-53
2023/04/05 05:51:49;;;;;;;0.47;0.30;;;22.90;49.00;;;;;;5011161;28;20193;-52
2023/04/05 05:54:20;;;;;;;0.30;0.30;;;22.90;48.90;;;;;;5011556;28;20675;-50
2023/04/05 05:56:51;;;;;;;0.20;0.20;;;22.90;48.80;;;;;;5011552;28;20191;-50
2023/04/05 05:59:21;;;;;;;0.20;0.10;;;22.90;48.80;;;;;;5011500;28;20275;-52
2023/04/05 06:01:52;;;;;;;0.38;0.20;;;22.90;48.90;;;;;;5011236;28;20733;-48
2023/04/05 06:04:25;;;;;;;0.17;0.17;;;22.90;48.90;;;;;;5011391;28;20212;-53
2023/04/05 06:06:55;;;;;;;0.73;0.20;;;22.90;48.90;;;;;;4992155;28;20723;-51
2023/04/05 06:09:26;;;;;;;0.77;0.25;;;22.90;48.90;;;;;;4991658;28;20560;-54
2023/04/05 06:11:57;;;;;;;0.45;0.30;;;22.90;48.90;;;;;;4991690;28;20225;-51
2023/04/05 06:14:28;;;;;;;0.20;0.20;;;22.90;48.90;;;;;;4994861;28;20178;-50
2023/04/05 06:16:59;;;;;;;0.43;0.20;;;22.90;48.80;;;;;;5010905;28;20184;-53
2023/04/05 06:19:31;;;;;;;0.43;0.40;;;22.90;48.80;;;;;;5011402;28;20308;-50
2023/04/05 06:22:02;;;;;;;1.77;0.20;;;22.90;48.60;;;;;;5010950;28;20211;-54
2023/04/05 06:24:33;;;;;;;0.20;0.20;;;22.90;48.60;;;;;;5010688;28;20198;-52
2023/04/05 06:27:03;;;;;;;0.47;0.20;;;22.90;48.60;;;;;;5005693;28;20189;-52
2023/04/05 06:29:34;;;;;;;0.80;0.22;;;22.90;48.60;;;;;;4991400;28;20685;-49
2023/04/05 06:32:05;;;;;;;0.63;0.20;;;22.90;48.50;;;;;;4991551;28;20193;-50
2023/04/05 06:34:37;;;;;;;0.35;0.20;;;22.90;48.50;;;;;;4992988;28;20204;-51
2023/04/05 06:37:08;;;;;;;0.40;0.20;;;22.80;48.40;;;;;;5010850;28;20577;-51
2023/04/05 06:39:38;;;;;;;0.32;0.30;;;22.80;48.30;;;;;;5010786;28;20751;-55
2023/04/05 06:42:09;;;;;;;0.32;0.32;;;22.80;48.40;;;;;;5010661;28;20200;-59
2023/04/05 06:44:40;;;;;;;0.55;0.30;;;22.80;48.40;;;;;;5010692;28;20665;-51
2023/04/05 06:47:11;;;;;;;1.38;0.25;;;22.80;48.40;;;;;;5010218;28;20188;-52
2023/04/05 06:49:43;;;;;;;0.40;0.38;;;22.80;48.60;;;;;;5008412;28;20209;-52
2023/04/05 06:52:14;;;;;;;0.28;0.20;;;22.80;48.50;;;;;;5004838;28;20193;-53
2023/04/05 06:54:44;;;;;;;1.13;0.40;;;22.80;48.50;;;;;;4990859;28;20578;-53
2023/04/05 06:57:15;;;;;;;0.20;0.20;;;22.80;48.50;;;;;;4990962;28;20196;-54
2023/04/05 06:59:46;;;;;;;0.65;0.30;;;22.80;48.50;;;;;;4990882;28;20221;-52
2023/04/05 07:02:16;;;;;;;1.95;0.30;;;22.70;48.30;;;;;;4990744;28;20201;-54
2023/04/05 07:04:49;;;;;;;1.00;0.35;;;22.80;48.30;;;;;;4994568;28;20204;-52
2023/04/05 07:07:20;;;;;;;0.50;0.20;;;22.80;48.30;;;;;;5010659;28;20192;-54
2023/04/05 07:09:51;;;;;;;0.50;0.30;;;22.70;48.20;;;;;;5010473;28;20219;-52
2023/04/05 07:12:21;;;;;;;0.52;0.15;;;22.70;48.70;;;;;;5010366;28;20262;-54
2023/04/05 07:14:52;;;;;;;1.00;0.28;;;22.70;48.10;;;;;;5010455;28;20197;-58
2023/04/05 07:17:22;;;;;;;1.45;0.30;;;22.70;48.00;;;;;;5010324;28;20598;-54
2023/04/05 07:19:55;;;;;;;0.20;0.20;;;22.70;48.00;;;;;;5010145;28;20216;-54
2023/04/05 07:22:26;;;;;;;0.40;0.20;;;22.70;48.00;;;;;;5009588;28;20189;-55
2023/04/05 07:24:56;;;;;;;1.00;0.40;;;22.70;48.10;;;;;;5010119;28;20212;-52
2023/04/05 07:27:27;;;;;;;0.28;0.28;;;22.70;48.10;;;;;;5010024;28;20286;-55
2023/04/05 07:29:57;;;;;;;0.50;0.38;;;22.70;48.20;;;;;;5010389;28;20220;-55
2023/04/05 07:32:28;;;;;;;0.47;0.30;;;22.60;48.20;;;;;;5010017;28;20196;-54
2023/04/05 07:35:01;;;;;;;0.30;0.20;;;22.60;48.30;;;;;;5010459;28;20209;-52
2023/04/05 07:37:33;;;;;;;0.55;0.30;;;22.70;48.30;;;;;;5006860;28;20197;-51
2023/04/05 07:40:04;;;;;;;0.50;0.28;;;22.60;48.20;;;;;;5006407;28;20217;-54
2023/04/05 07:42:35;;;;;;;0.43;0.40;;;22.60;48.20;;;;;;4991371;28;20247;-50
2023/04/05 07:45:06;;;;;;;0.52;0.30;;;22.60;48.10;;;;;;4991505;28;20220;-54
2023/04/05 07:47:37;;;;;;;0.65;0.20;;;22.60;48.10;;;;;;4991725;28;20201;-53
2023/04/05 07:50:13;;;;;;;0.57;0.40;;;22.60;48.10;;;;;;5009407;28;20719;-47
2023/04/05 07:52:44;;;;;;;0.38;0.28;;;22.60;48.10;;;;;;5015595;28;20656;-49
2023/04/05 07:55:16;;;;;;;0.65;0.25;;;22.60;48.10;;;;;;5014833;28;20727;-48
2023/04/05 07:57:46;;;;;;;0.60;0.40;;;22.50;48.10;;;;;;5015065;28;20201;-51
2023/04/05 08:00:17;;;;;;;0.60;0.30;;;22.60;48.10;;;;;;5015140;28;20897;-51
2023/04/05 08:02:48;;;;;;;0.57;0.30;;;22.60;48.10;;;;;;5015256;28;20614;-54
2023/04/05 08:05:21;;;;;;;1.02;0.30;;;22.50;48.10;;;;;;5014658;28;20201;-50
2023/04/05 08:07:51;;;;;;;0.70;0.50;;;22.50;48.10;;;;;;5014403;28;20193;-53
2023/04/05 08:10:22;;;;;;;0.75;0.30;;;22.50;48.10;;;;;;5014238;28;20220;-50
2023/04/05 08:12:53;;;;;;;1.33;0.30;;;22.50;48.20;;;;;;5014578;28;20196;-54
2023/04/05 08:15:23;;;;;;;0.32;0.30;;;22.50;48.20;;;;;;5014260;28;20197;-49
2023/04/05 08:17:54;;;;;;;0.80;0.25;;;22.50;48.20;;;;;;5014928;28;20220;-53
2023/04/05 08:20:26;;;;;;;0.68;0.22;;;22.50;48.20;;;;;;5014077;28;20577;-51
2023/04/05 08:22:57;;;;;;;1.35;0.45;;;22.50;48.30;;;;;;5014676;28;20657;-51
2023/04/05 08:25:28;;;;;;;0.68;0.30;;;22.50;48.20;;;;;;5014707;28;20212;-50
2023/04/05 08:27:58;;;;;;;0.32;0.30;;;22.50;48.20;;;;;;5014674;28;20206;-50
2023/04/05 08:30:29;;;;;;;1.63;0.30;;;22.50;48.20;;;;;;5014465;28;20221;-53
2023/04/05 08:32:59;;;;;;;0.43;0.30;;;22.50;48.20;;;;;;5014213;28;20565;-49
2023/04/05 08:35:32;;;;;;;0.43;0.30;;;22.50;48.20;;;;;;5014273;28;20700;-55
2023/04/05 08:38:03;;;;;;;1.17;0.40;;;22.40;48.10;;;;;;5014949;28;20197;-51
2023/04/05 08:40:40;;;;;;;0.73;0.28;;;22.40;48.20;;;;;;5014099;28;20217;-48
2023/04/05 08:43:16;;;;;;;0.73;0.30;;;22.40;48.10;;;;;;5014229;28;20200;-51
2023/04/05 08:45:51;;;;;;;0.77;0.30;;;22.40;48.20;;;;;;5013578;28;20207;-53
2023/04/05 08:48:22;;;;;;;0.30;0.28;;;22.40;48.20;;;;;;5013556;28;20219;-52
2023/04/05 08:50:58;;;;;;;0.28;0.25;;;22.40;48.20;;;;;;5014125;28;20217;-53
2023/04/05 08:53:29;;;;;;;0.20;0.20;;;22.40;48.30;;;;;;5013887;28;20204;-53
2023/04/05 08:56:01;;;;;;;0.57;0.35;;;22.40;48.30;;;;;;5013416;28;20584;-50
2023/04/05 08:58:35;;;;;;;0.38;0.38;;;22.40;48.30;;;;;;5012056;28;20200;-49
2023/04/05 09:01:08;;;;;;;0.32;0.20;;;22.40;48.40;;;;;;5013906;28;20688;-55
2023/04/05 09:03:41;;;;;;;0.32;0.25;;;22.40;48.40;;;;;;5007307;28;20209;-47
2023/04/05 09:06:16;;;;;;;1.15;0.40;;;22.30;48.30;;;;;;5012340;28;20200;-50
2023/04/05 09:08:47;;;;;;;0.85;0.30;;;22.30;48.30;;;;;;5008961;28;20193;-48
2023/04/05 09:11:19;;;;;;;0.60;0.30;;;22.30;48.30;;;;;;4994369;28;20198;-50
2023/04/05 09:13:50;;;;;;;2.17;0.40;;;22.30;48.30;;;;;;4994208;28;20285;-50
2023/04/05 09:16:21;;;;;;;0.38;0.20;;;22.30;48.30;;;;;;4993121;28;20225;-52
2023/04/05 09:18:51;;;;;;;0.68;0.28;;;22.30;48.30;;;;;;4993397;28;20217;-52
2023/04/05 09:21:26;;;;;;;1.00;0.38;;;22.30;48.40;;;;;;4999403;28;20196;-50
2023/04/05 09:23:57;;;;;;;0.50;0.30;;;22.30;48.40;;;;;;4999906;28;20200;-54
2023/04/05 09:26:28;;;;;;;0.75;0.20;;;22.20;48.40;;;;;;4993229;28;20202;-53
2023/04/05 09:28:59;;;;;;;0.45;0.30;;;22.20;48.40;;;;;;4993583;28;20197;-52
2023/04/05 09:31:37;;;;;;;0.35;0.35;;;22.20;48.40;;;;;;4992754;28;20842;-52
2023/04/05 09:34:08;;;;;;;1.60;0.35;;;22.20;48.50;;;;;;4992390;28;20202;-49
2023/04/05 09:36:46;;;;;;;0.55;0.30;;;22.20;48.50;;;;;;5008635;28;20228;-51
2023/04/05 09:39:20;;;;;;;0.32;0.20;;;22.20;48.50;;;;;;4993384;28;20252;-50
2023/04/05 09:42:10;;;;;;;0.38;0.15;;;22.20;48.60;;;;;;4993122;28;20228;-53
2023/04/05 09:45:01;;;;;;;0.40;0.25;;;22.20;48.50;;;;;;4992912;28;20229;-55
2023/04/05 09:47:33;;;;;;;0.30;0.30;;;22.20;48.50;;;;;;4992251;28;20276;-53
2023/04/05 09:50:05;;;;;;;1.10;0.30;;;22.20;48.50;;;;;;4992985;28;20274;-52
2023/04/05 09:52:37;;;;;;;0.50;0.30;;;22.20;48.50;;;;;;4992684;28;20202;-55
2023/04/05 09:55:09;;;;;;;0.35;0.30;;;22.10;48.50;;;;;;4992825;28;20209;-49
2023/04/05 09:57:42;;;;;;;0.55;0.30;;;22.10;48.60;;;;;;4999519;28;20216;-55
2023/04/05 10:00:21;;;;;;;0.60;0.35;;;22.10;48.60;;;;;;5012336;28;20279;-55
2023/04/05 10:02:55;;;;;;;0.13;0.10;;;22.10;48.60;;;;;;5011508;28;20208;-52
2023/04/05 10:05:28;;;;;;;0.55;0.32;;;22.10;48.60;;;;;;5012376;28;20283;-54
2023/04/05 10:08:01;;;;;;;0.55;0.20;;;22.10;48.60;;;;;;5011755;28;20571;-51
2023/04/05 10:10:32;;;;;;;0.20;0.20;;;22.10;48.70;;;;;;5011764;28;20604;-51
2023/04/05 10:13:06;;;;;;;0.32;0.25;;;22.10;48.70;;;;;;5010191;28;20602;-50
2023/04/05 10:15:37;;;;;;;0.52;0.20;;;22.10;48.70;;;;;;5011854;28;20281;-52
2023/04/05 10:18:17;;;;;;;0.52;0.30;;;22.00;48.70;;;;;;5012100;28;20696;-54
2023/04/05 10:20:51;;;;;;;0.55;0.25;;;22.00;48.70;;;;;;5011712;28;20595;-58
2023/04/05 10:23:29;;;;;;;0.20;0.20;;;22.00;48.70;;;;;;5006451;28;20225;-57
2023/04/05 10:26:09;;;;;;;0.17;0.17;;;22.00;48.70;;;;;;4992116;28;20202;-57
2023/04/05 10:28:44;;;;;;;0.73;0.32;;;22.00;48.70;;;;;;4992404;28;20204;-56
2023/04/05 10:31:23;;;;;;;0.35;0.30;;;22.00;48.60;;;;;;4991898;28;20204;-53
2023/04/05 10:34:04;;;;;;;0.45;0.25;;;22.00;48.60;;;;;;4991632;28;20190;-50
2023/04/05 10:36:43;;;;;;;0.30;0.30;;;22.00;48.70;;;;;;5009366;28;20228;-55
2023/04/05 10:39:27;;;;;;;0.70;0.20;;;22.00;48.60;;;;;;5010684;28;20213;-51
2023/04/05 10:42:04;;;;;;;0.60;0.32;;;22.00;48.60;;;;;;5011559;28;20200;-53
2023/04/05 10:44:36;;;;;;;0.20;0.20;;;21.90;48.60;;;;;;4997107;28;20827;-55
2023/04/05 10:47:08;;;;;;;0.82;0.40;;;21.90;48.60;;;;;;4991125;28;20205;-52
2023/04/05 10:49:44;;;;;;;0.60;0.30;;;21.90;48.90;;;;;;4991334;28;20293;-54
2023/04/05 10:52:15;;;;;;;0.88;0.40;;;21.90;48.80;;;;;;4992218;28;20205;-49
2023/04/05 10:54:55;;;;;;;0.47;0.30;;;21.90;48.70;;;;;;4991712;28;20199;-52
2023/04/05 10:57:27;;;;;;;0.43;0.30;;;21.90;48.80;;;;;;4993994;28;20967;-54
2023/04/05 10:59:58;;;;;;;0.32;0.20;;;21.90;48.80;;;;;;4995048;28;20217;-52
2023/04/05 11:02:31;;;;;;;0.30;0.30;;;21.90;48.80;;;;;;4991816;28;20712;-51
2023/04/05 11:05:06;;;;;;;0.30;0.30;;;21.90;48.80;;;;;;5005470;28;20204;-52
2023/04/05 11:07:48;;;;;;;0.20;0.20;;;21.90;48.80;;;;;;5011095;28;20203;-50
2023/04/05 11:10:21;;;;;;;0.10;0.10;;;21.90;48.70;;;;;;5010133;28;20228;-52
2023/04/05 11:13:13;;;;;;;0.43;0.25;;;21.80;48.70;;;;;;5011793;28;20205;-52
2023/04/05 11:15:44;;;;;;;1.25;0.30;;;21.80;48.70;;;;;;5011075;28;20258;-51
2023/04/05 11:18:23;;;;;;;0.45;0.40;;;21.80;48.70;;;;;;5011234;28;20224;-51
2023/04/05 11:20:54;;;;;;;0.35;0.30;;;21.80;48.70;;;;;;5010928;28;20917;-53
2023/04/05 11:23:26;;;;;;;0.63;0.40;;;21.80;48.70;;;;;;5010414;28;20560;-54
2023/04/05 11:26:05;;;;;;;0.22;0.20;;;21.80;48.80;;;;;;5010066;28;20216;-49
2023/04/05 11:28:39;;;;;;;0.40;0.20;;;21.80;48.80;;;;;;5010409;28;20733;-54
2023/04/05 11:31:21;;;;;;;0.63;0.30;;;21.80;48.80;;;;;;5011156;28;20217;-52
2023/04/05 11:34:09;;;;;;;0.13;0.13;;;21.80;48.90;;;;;;5010490;28;20217;-51
2023/04/05 11:36:46;;;;;;;0.98;0.30;;;21.70;48.80;;;;;;5007170;28;20234;-56
2023/04/05 11:39:30;;;;;;;0.98;0.35;;;21.80;48.90;;;;;;5005505;28;20212;-50
2023/04/05 11:42:07;;;;;;;0.32;0.20;;;21.70;48.90;;;;;;5011231;28;20596;-52
2023/04/05 11:44:48;;;;;;;1.02;0.28;;;21.70;48.90;;;;;;5010430;28;20200;-51
2023/04/05 11:47:21;;;;;;;1.52;0.30;;;21.70;48.90;;;;;;5011434;28;20204;-49
2023/04/05 11:49:53;;;;;;;0.45;0.40;;;21.70;48.90;;;;;;5008269;28;20723;-52
2023/04/05 11:52:24;;;;;;;1.60;0.30;;;21.70;48.80;;;;;;5010404;28;20248;-51
2023/04/05 11:54:55;;;;;;;0.75;0.25;;;21.70;48.80;;;;;;5010902;28;20219;-52
2023/04/05 11:57:27;;;;;;;0.52;0.50;;;21.70;48.90;;;;;;5006977;28;20217;-54
2023/04/05 11:59:58;;;;;;;1.05;0.30;;;21.70;48.90;;;;;;4991858;28;20275;-51
2023/04/05 12:02:29;;;;;;;0.20;0.20;;;21.70;48.90;;;;;;4991272;28;20202;-49
2023/04/05 12:05:00;;;;;;;0.25;0.20;;;21.60;48.80;;;;;;4995591;28;20197;-48
2023/04/05 12:07:35;;;;;;;1.50;0.30;;;21.60;48.90;;;;;;5010475;28;20205;-49
2023/04/05 12:10:10;;;;;;;0.75;0.30;;;21.60;48.90;;;;;;5010800;28;20216;-51
2023/04/05 12:12:43;;;;;;;0.30;0.20;;;21.60;48.90;;;;;;5011376;28;20283;-53
2023/04/05 12:15:17;;;;;;;0.35;0.20;;;21.60;49.00;;;;;;5011073;28;20308;-50
2023/04/05 12:17:53;;;;;;;0.80;0.40;;;21.60;49.00;;;;;;5011630;28;20228;-51
2023/04/05 12:20:25;;;;;;;1.45;0.30;;;21.60;49.00;;;;;;5007624;28;20217;-53
2023/04/05 12:22:58;;;;;;;0.22;0.20;;;21.60;49.00;;;;;;5009974;28;20206;-52
2023/04/05 12:25:29;;;;;;;0.30;0.20;;;21.60;49.00;;;;;;5009738;28;20653;-51
2023/04/05 12:28:07;;;;;;;0.60;0.47;;;21.60;49.00;;;;;;5010140;28;20193;-52
2023/04/05 12:30:49;;;;;;;0.20;0.20;;;21.60;49.00;;;;;;5009809;28;20244;-50
2023/04/05 12:33:29;;;;;;;0.22;0.20;;;21.60;49.00;;;;;;5009118;28;20256;-49
2023/04/05 12:36:00;;;;;;;0.60;0.30;;;21.60;49.00;;;;;;5003751;28;20239;-54
2023/04/05 12:38:31;;;;;;;0.30;0.28;;;21.60;49.00;;;;;;5010456;28;20224;-53
2023/04/05 12:41:03;;;;;;;0.57;0.22;;;21.60;49.00;;;;;;5014230;28;20219;-53
2023/04/05 12:43:44;;;;;;;0.55;0.30;;;21.50;48.90;;;;;;5014262;28;20213;-51
2023/04/05 12:46:18;;;;;;;0.60;0.40;;;21.50;48.90;;;;;;5014200;28;20665;-55
2023/04/05 12:48:53;;;;;;;0.40;0.30;;;21.50;48.90;;;;;;5013527;28;20203;-53
2023/04/05 12:51:25;;;;;;;0.30;0.30;;;21.50;49.00;;;;;;5014279;28;20239;-51
2023/04/05 12:54:03;;;;;;;0.57;0.30;;;21.50;49.00;;;;;;5014325;28;20201;-51
2023/04/05 12:56:33;;;;;;;0.90;0.20;;;21.50;49.00;;;;;;5012367;28;20189;-52
2023/04/05 12:59:08;;;;;;;0.25;0.20;;;21.50;49.10;;;;;;5013804;28;20228;-55
2023/04/05 13:01:39;;;;;;;0.30;0.22;;;21.50;49.10;;;;;;5014057;28;20227;-52
2023/04/05 13:04:09;;;;;;;0.63;0.28;;;21.50;49.10;;;;;;5014222;28;20196;-57
2023/04/05 13:06:40;;;;;;;0.65;0.32;;;21.50;49.10;;;;;;5014082;28;20211;-55
2023/04/05 13:09:11;;;;;;;1.13;0.30;;;21.50;49.10;;;;;;5013869;28;20224;-57
2023/04/05 13:11:41;;;;;;;0.60;0.38;;;21.40;49.00;;;;;;5013911;28;20555;-51
2023/04/05 13:14:14;;;;;;;0.63;0.30;;;21.40;49.00;;;;;;5013825;28;20661;-56
2023/04/05 13:16:44;;;;;;;0.50;0.30;;;21.40;48.90;;;;;;5013553;28;20255;-53